sensor_id;sensor_type;location;lat;lon;timestamp;temperature;humidity
2010;DHT22;1008;47.404;8.502;2023-09-18T00:00:04;22.30;1.00
2010;DHT22;1008;47.404;8.502;2023-09-18T00:02:34;22.40;99.90
2010;DHT22;1008;47.404;8.502;2023-09-18T00:05:00;22.30;99.90
2010;DHT22;1008;47.404;8.502;2023-09-18T00:07:27;22.10;1.00
2010;DHT22;1008;47.404;8.502;2023-09-18T00:09:54;22.10;99.90
2010;DHT22;1008;47.404;8.502;2023-09-18T00:12:21;22.30;99.90
2010;DHT22;1008;47.404;8.502;2023-09-18T00:14:49;22.40;99.90
2010;DHT22;1008;47.404;8.502;2023-09-18T00:17:16;22.40;99.90
2010;DHT22;1008;47.404;8.502;2023-09-18T00:19:44;22.40;99.90
2010;DHT22;1008;47.404;8.502;2023-09-18T00:22:11;22.30;99.90
2010;DHT22;1008;47.404;8.502;2023-09-18T00:24:38;22.40;99.90
2010;DHT22;1008;47.404;8.502;2023-09-18T00:27:05;22.50;99.90
2010;DHT22;1008;47.404;8.502;2023-09-18T00:29:31;22.50;99.90
2010;DHT22;1008;47.404;8.502;2023-09-18T00:31:59;22.40;99.90
2010;DHT22;1008;47.404;8.502;2023-09-18T00:34:26;22.50;99.90
2010;DHT22;1008;47.404;8.502;2023-09-18T00:36:53;22.40;99.90
2010;DHT22;1008;47.404;8.502;2023-09-18T00:39:19;22.30;99.90
2010;DHT22;1008;47.404;8.502;2023-09-18T00:41:46;22.10;99.90
2010;DHT22;1008;47.404;8.502;2023-09-18T00:44:14;22.20;99.90
2010;DHT22;1008;47.404;8.502;2023-09-18T00:46:41;22.20;99.90
2010;DHT22;1008;47.404;8.502;2023-09-18T00:49:09;22.40;99.90
2010;DHT22;1008;47.404;8.502;2023-09-18T00:51:37;22.30;99.90
2010;DHT22;1008;47.404;8.502;2023-09-18T00:54:05;22.30;98.10
2010;DHT22;1008;47.404;8.502;2023-09-18T00:56:32;22.30;99.90
2010;DHT22;1008;47.404;8.502;2023-09-18T00:59:00;22.40;11.20
2010;DHT22;1008;47.404;8.502;2023-09-18T01:01:28;22.30;1.00
2010;DHT22;1008;47.404;8.502;2023-09-18T01:03:55;22.10;1.00
2010;DHT22;1008;47.404;8.502;2023-09-18T01:06:25;21.70;1.00
2010;DHT22;1008;47.404;8.502;2023-09-18T01:08:56;21.60;1.00
2010;DHT22;1008;47.404;8.502;2023-09-18T01:11:29;21.60;13.70
2010;DHT22;1008;47.404;8.502;2023-09-18T01:14:04;21.60;60.60
2010;DHT22;1008;47.404;8.502;2023-09-18T01:16:42;21.70;45.10
2010;DHT22;1008;47.404;8.502;2023-09-18T01:19:11;21.80;18.70
2010;DHT22;1008;47.404;8.502;2023-09-18T01:21:39;21.70;38.80
2010;DHT22;1008;47.404;8.502;2023-09-18T01:24:07;21.60;57.60
2010;DHT22;1008;47.404;8.502;2023-09-18T01:26:34;21.70;99.90
2010;DHT22;1008;47.404;8.502;2023-09-18T01:29:01;21.70;99.90
2010;DHT22;1008;47.404;8.502;2023-09-18T01:31:28;21.70;99.90
2010;DHT22;1008;47.404;8.502;2023-09-18T01:33:55;21.60;99.90
2010;DHT22;1008;47.404;8.502;2023-09-18T01:36:22;21.60;99.90
2010;DHT22;1008;47.404;8.502;2023-09-18T01:38:50;21.70;90.00
2010;DHT22;1008;47.404;8.502;2023-09-18T01:41:19;21.50;2.20
2010;DHT22;1008;47.404;8.502;2023-09-18T01:43:46;21.60;1.00
2010;DHT22;1008;47.404;8.502;2023-09-18T01:46:13;21.70;1.00
2010;DHT22;1008;47.404;8.502;2023-09-18T01:48:45;21.90;1.00
2010;DHT22;1008;47.404;8.502;2023-09-18T01:51:13;21.80;1.00
2010;DHT22;1008;47.404;8.502;2023-09-18T01:53:40;21.70;1.00
2010;DHT22;1008;47.404;8.502;2023-09-18T01:56:07;21.70;1.00
2010;DHT22;1008;47.404;8.502;2023-09-18T01:58:35;21.70;1.00
2010;DHT22;1008;47.404;8.502;2023-09-18T02:01:01;21.30;1.00
2010;DHT22;1008;47.404;8.502;2023-09-18T02:03:30;21.30;1.00
2010;DHT22;1008;47.404;8.502;2023-09-18T02:05:56;21.40;1.00
2010;DHT22;1008;47.404;8.502;2023-09-18T02:08:23;21.50;1.00
2010;DHT22;1008;47.404;8.502;2023-09-18T02:10:50;21.60;1.00
2010;DHT22;1008;47.404;8.502;2023-09-18T02:13:16;21.70;1.00
2010;DHT22;1008;47.404;8.502;2023-09-18T02:15:45;21.70;1.00
2010;DHT22;1008;47.404;8.502;2023-09-18T02:18:12;21.50;1.00
2010;DHT22;1008;47.404;8.502;2023-09-18T02:20:41;21.70;1.00
2010;DHT22;1008;47.404;8.502;2023-09-18T02:23:09;21.50;99.90
2010;DHT22;1008;47.404;8.502;2023-09-18T02:25:36;21.40;99.90
2010;DHT22;1008;47.404;8.502;2023-09-18T02:28:03;21.40;99.90
2010;DHT22;1008;47.404;8.502;2023-09-18T02:30:30;21.20;99.90
2010;DHT22;1008;47.404;8.502;2023-09-18T02:32:58;21.10;99.90
2010;DHT22;1008;47.404;8.502;2023-09-18T02:35:25;21.20;99.90
2010;DHT22;1008;47.404;8.502;2023-09-18T02:37:52;21.20;99.90
2010;DHT22;1008;47.404;8.502;2023-09-18T02:40:18;21.00;99.90
2010;DHT22;1008;47.404;8.502;2023-09-18T02:42:45;20.80;1.00
2010;DHT22;1008;47.404;8.502;2023-09-18T02:45:12;20.90;1.00
2010;DHT22;1008;47.404;8.502;2023-09-18T02:47:38;21.00;1.00
2010;DHT22;1008;47.404;8.502;2023-09-18T02:50:08;21.00;1.70
2010;DHT22;1008;47.404;8.502;2023-09-18T02:52:37;20.90;1.00
2010;DHT22;1008;47.404;8.502;2023-09-18T02:55:04;21.00;1.00
2010;DHT22;1008;47.404;8.502;2023-09-18T02:57:30;21.10;1.00
2010;DHT22;1008;47.404;8.502;2023-09-18T02:59:57;21.20;99.90
2010;DHT22;1008;47.404;8.502;2023-09-18T03:02:24;21.20;99.90
2010;DHT22;1008;47.404;8.502;2023-09-18T03:04:50;20.60;1.00
2010;DHT22;1008;47.404;8.502;2023-09-18T03:07:18;20.40;99.90
2010;DHT22;1008;47.404;8.502;2023-09-18T03:09:45;20.50;1.00
2010;DHT22;1008;47.404;8.502;2023-09-18T03:12:12;20.40;99.90
2010;DHT22;1008;47.404;8.502;2023-09-18T03:14:38;20.50;99.90
2010;DHT22;1008;47.404;8.502;2023-09-18T03:17:05;20.50;1.10
2010;DHT22;1008;47.404;8.502;2023-09-18T03:19:32;20.40;36.50
2010;DHT22;1008;47.404;8.502;2023-09-18T03:21:58;20.40;99.90
2010;DHT22;1008;47.404;8.502;2023-09-18T03:24:26;20.60;54.70
2010;DHT22;1008;47.404;8.502;2023-09-18T03:26:53;20.70;1.00
2010;DHT22;1008;47.404;8.502;2023-09-18T03:29:20;20.70;1.00
2010;DHT22;1008;47.404;8.502;2023-09-18T03:31:46;20.80;1.00
2010;DHT22;1008;47.404;8.502;2023-09-18T03:34:13;20.70;1.00
2010;DHT22;1008;47.404;8.502;2023-09-18T03:36:40;20.70;16.00
2010;DHT22;1008;47.404;8.502;2023-09-18T03:39:06;20.50;99.90
2010;DHT22;1008;47.404;8.502;2023-09-18T03:41:36;20.40;1.00
2010;DHT22;1008;47.404;8.502;2023-09-18T03:44:03;20.60;1.00
2010;DHT22;1008;47.404;8.502;2023-09-18T03:46:31;20.40;8.70
2010;DHT22;1008;47.404;8.502;2023-09-18T03:48:57;20.40;99.90
2010;DHT22;1008;47.404;8.502;2023-09-18T03:51:24;20.20;99.90
2010;DHT22;1008;47.404;8.502;2023-09-18T03:53:51;20.10;99.90
2010;DHT22;1008;47.404;8.502;2023-09-18T03:56:17;20.00;1.00
2010;DHT22;1008;47.404;8.502;2023-09-18T03:58:45;19.80;1.00
2010;DHT22;1008;47.404;8.502;2023-09-18T04:01:15;19.70;1.00
2010;DHT22;1008;47.404;8.502;2023-09-18T04:03:41;19.70;99.90
2010;DHT22;1008;47.404;8.502;2023-09-18T04:06:08;19.60;99.90
2010;DHT22;1008;47.404;8.502;2023-09-18T04:08:35;19.70;99.90
2010;DHT22;1008;47.404;8.502;2023-09-18T04:11:01;19.60;99.90
2010;DHT22;1008;47.404;8.502;2023-09-18T04:13:29;19.80;99.90
2010;DHT22;1008;47.404;8.502;2023-09-18T04:15:57;19.80;25.20
2010;DHT22;1008;47.404;8.502;2023-09-18T04:18:26;20.10;16.30
2010;DHT22;1008;47.404;8.502;2023-09-18T04:20:53;20.30;99.90
2010;DHT22;1008;47.404;8.502;2023-09-18T04:23:21;20.40;1.00
2010;DHT22;1008;47.404;8.502;2023-09-18T04:25:48;20.40;99.90
2010;DHT22;1008;47.404;8.502;2023-09-18T04:28:16;20.50;99.90
2010;DHT22;1008;47.404;8.502;2023-09-18T04:30:43;20.60;5.70
2010;DHT22;1008;47.404;8.502;2023-09-18T04:33:12;20.80;8.90
2010;DHT22;1008;47.404;8.502;2023-09-18T04:35:39;20.70;1.00
2010;DHT22;1008;47.404;8.502;2023-09-18T04:38:06;20.70;1.00
2010;DHT22;1008;47.404;8.502;2023-09-18T04:40:33;20.80;1.00
2010;DHT22;1008;47.404;8.502;2023-09-18T04:43:00;20.80;99.90
2010;DHT22;1008;47.404;8.502;2023-09-18T04:45:27;20.70;99.90
2010;DHT22;1008;47.404;8.502;2023-09-18T04:47:54;20.80;1.00
2010;DHT22;1008;47.404;8.502;2023-09-18T04:50:23;20.90;99.90
2010;DHT22;1008;47.404;8.502;2023-09-18T04:52:52;20.80;1.00
2010;DHT22;1008;47.404;8.502;2023-09-18T04:55:20;20.80;1.00
2010;DHT22;1008;47.404;8.502;2023-09-18T04:57:46;20.90;99.90
2010;DHT22;1008;47.404;8.502;2023-09-18T05:00:14;21.10;1.00
2010;DHT22;1008;47.404;8.502;2023-09-18T05:02:41;21.10;1.00
2010;DHT22;1008;47.404;8.502;2023-09-18T05:05:08;20.80;1.00
2010;DHT22;1008;47.404;8.502;2023-09-18T05:07:37;20.90;9.20
2010;DHT22;1008;47.404;8.502;2023-09-18T05:10:04;21.00;99.90
2010;DHT22;1008;47.404;8.502;2023-09-18T05:12:31;21.10;99.90
2010;DHT22;1008;47.404;8.502;2023-09-18T05:14:58;21.20;99.90
2010;DHT22;1008;47.404;8.502;2023-09-18T05:17:40;21.10;1.80
2010;DHT22;1008;47.404;8.502;2023-09-18T05:20:08;21.30;93.30
2010;DHT22;1008;47.404;8.502;2023-09-18T05:22:38;21.30;99.90
2010;DHT22;1008;47.404;8.502;2023-09-18T05:25:05;21.30;1.00
2010;DHT22;1008;47.404;8.502;2023-09-18T05:27:32;21.40;1.00
2010;DHT22;1008;47.404;8.502;2023-09-18T05:29:59;21.20;1.00
2010;DHT22;1008;47.404;8.502;2023-09-18T05:32:25;20.90;99.90
2010;DHT22;1008;47.404;8.502;2023-09-18T05:34:52;21.20;99.90
2010;DHT22;1008;47.404;8.502;2023-09-18T05:37:19;21.20;27.60
2010;DHT22;1008;47.404;8.502;2023-09-18T05:39:47;21.40;1.00
2010;DHT22;1008;47.404;8.502;2023-09-18T05:42:14;21.40;99.90
2010;DHT22;1008;47.404;8.502;2023-09-18T05:44:41;21.40;99.90
2010;DHT22;1008;47.404;8.502;2023-09-18T05:47:08;21.50;99.90
2010;DHT22;1008;47.404;8.502;2023-09-18T05:49:34;21.40;99.90
2010;DHT22;1008;47.404;8.502;2023-09-18T05:52:01;21.50;99.90
2010;DHT22;1008;47.404;8.502;2023-09-18T05:54:28;21.40;99.90
2010;DHT22;1008;47.404;8.502;2023-09-18T05:56:56;21.20;1.00
2010;DHT22;1008;47.404;8.502;2023-09-18T05:59:23;21.20;1.00
2010;DHT22;1008;47.404;8.502;2023-09-18T06:01:49;21.30;1.00
2010;DHT22;1008;47.404;8.502;2023-09-18T06:04:16;21.30;1.00
2010;DHT22;1008;47.404;8.502;2023-09-18T06:06:43;21.40;99.90
2010;DHT22;1008;47.404;8.502;2023-09-18T06:09:10;21.50;99.90
2010;DHT22;1008;47.404;8.502;2023-09-18T06:11:36;21.40;99.90
2010;DHT22;1008;47.404;8.502;2023-09-18T06:14:04;21.00;99.90
2010;DHT22;1008;47.404;8.502;2023-09-18T06:16:31;21.00;99.90
2010;DHT22;1008;47.404;8.502;2023-09-18T06:18:58;20.80;99.90
2010;DHT22;1008;47.404;8.502;2023-09-18T06:21:25;20.70;41.90
2010;DHT22;1008;47.404;8.502;2023-09-18T06:23:52;20.70;99.90
2010;DHT22;1008;47.404;8.502;2023-09-18T06:26:18;20.60;1.00
2010;DHT22;1008;47.404;8.502;2023-09-18T06:28:47;20.60;1.00
2010;DHT22;1008;47.404;8.502;2023-09-18T06:31:15;20.60;42.60
2010;DHT22;1008;47.404;8.502;2023-09-18T06:33:41;20.80;99.90
2010;DHT22;1008;47.404;8.502;2023-09-18T06:36:08;21.00;1.00
2010;DHT22;1008;47.404;8.502;2023-09-18T06:38:35;21.10;99.90
2010;DHT22;1008;47.404;8.502;2023-09-18T06:41:02;21.30;1.00
2010;DHT22;1008;47.404;8.502;2023-09-18T06:43:29;21.40;95.60
2010;DHT22;1008;47.404;8.502;2023-09-18T06:45:56;21.40;1.00
2010;DHT22;1008;47.404;8.502;2023-09-18T06:48:24;21.20;89.30
2010;DHT22;1008;47.404;8.502;2023-09-18T06:50:51;21.00;99.90
2010;DHT22;1008;47.404;8.502;2023-09-18T06:53:18;21.10;1.00
2010;DHT22;1008;47.404;8.502;2023-09-18T06:55:44;21.00;1.00
2010;DHT22;1008;47.404;8.502;2023-09-18T06:58:11;20.80;99.90
2010;DHT22;1008;47.404;8.502;2023-09-18T07:00:38;20.40;99.90
2010;DHT22;1008;47.404;8.502;2023-09-18T07:03:04;20.50;1.00
2010;DHT22;1008;47.404;8.502;2023-09-18T07:05:33;20.50;1.00
2010;DHT22;1008;47.404;8.502;2023-09-18T07:07:59;20.50;99.90
2010;DHT22;1008;47.404;8.502;2023-09-18T07:10:26;20.30;1.00
2010;DHT22;1008;47.404;8.502;2023-09-18T07:12:53;20.40;1.00
2010;DHT22;1008;47.404;8.502;2023-09-18T07:15:19;20.40;1.00
2010;DHT22;1008;47.404;8.502;2023-09-18T07:17:46;20.40;1.00
2010;DHT22;1008;47.404;8.502;2023-09-18T07:20:14;20.50;1.00
2010;DHT22;1008;47.404;8.502;2023-09-18T07:22:46;20.40;99.90
2010;DHT22;1008;47.404;8.502;2023-09-18T07:25:13;20.20;99.90
2010;DHT22;1008;47.404;8.502;2023-09-18T07:27:40;20.30;99.90
2010;DHT22;1008;47.404;8.502;2023-09-18T07:30:10;20.40;99.90
2010;DHT22;1008;47.404;8.502;2023-09-18T07:32:39;20.30;99.90
2010;DHT22;1008;47.404;8.502;2023-09-18T07:35:06;20.30;1.00
2010;DHT22;1008;47.404;8.502;2023-09-18T07:37:34;20.40;99.90
2010;DHT22;1008;47.404;8.502;2023-09-18T07:40:03;20.20;1.00
2010;DHT22;1008;47.404;8.502;2023-09-18T07:42:30;20.00;1.00
2010;DHT22;1008;47.404;8.502;2023-09-18T07:44:56;20.10;1.00
2010;DHT22;1008;47.404;8.502;2023-09-18T07:47:23;19.90;99.90
2010;DHT22;1008;47.404;8.502;2023-09-18T07:49:50;19.70;99.90
2010;DHT22;1008;47.404;8.502;2023-09-18T07:52:17;19.80;99.90
2010;DHT22;1008;47.404;8.502;2023-09-18T07:54:44;19.80;99.90
2010;DHT22;1008;47.404;8.502;2023-09-18T07:57:12;19.80;1.00
2010;DHT22;1008;47.404;8.502;2023-09-18T07:59:39;19.80;1.00
2010;DHT22;1008;47.404;8.502;2023-09-18T08:02:07;19.60;1.00
2010;DHT22;1008;47.404;8.502;2023-09-18T08:04:35;19.60;1.00
2010;DHT22;1008;47.404;8.502;2023-09-18T08:07:01;19.50;1.00
2010;DHT22;1008;47.404;8.502;2023-09-18T08:09:28;19.40;1.00
2010;DHT22;1008;47.404;8.502;2023-09-18T08:11:55;19.50;1.00
2010;DHT22;1008;47.404;8.502;2023-09-18T08:14:23;19.50;1.00
2010;DHT22;1008;47.404;8.502;2023-09-18T08:16:56;19.50;1.00
2010;DHT22;1008;47.404;8.502;2023-09-18T08:19:23;19.50;1.00
2010;DHT22;1008;47.404;8.502;2023-09-18T08:21:53;19.40;1.00
2010;DHT22;1008;47.404;8.502;2023-09-18T08:24:19;19.50;1.00
2010;DHT22;1008;47.404;8.502;2023-09-18T08:26:46;19.40;1.00
2010;DHT22;1008;47.404;8.502;2023-09-18T08:29:13;19.30;1.00
2010;DHT22;1008;47.404;8.502;2023-09-18T08:31:41;19.40;1.00
2010;DHT22;1008;47.404;8.502;2023-09-18T08:34:08;19.50;1.00
2010;DHT22;1008;47.404;8.502;2023-09-18T08:36:34;19.40;1.00
2010;DHT22;1008;47.404;8.502;2023-09-18T08:39:01;19.10;1.00
2010;DHT22;1008;47.404;8.502;2023-09-18T08:41:28;19.00;1.00
2010;DHT22;1008;47.404;8.502;2023-09-18T08:44:00;19.20;1.00
2010;DHT22;1008;47.404;8.502;2023-09-18T08:46:29;19.20;1.00
2010;DHT22;1008;47.404;8.502;2023-09-18T08:48:58;19.00;1.00
2010;DHT22;1008;47.404;8.502;2023-09-18T08:51:27;19.00;1.00
2010;DHT22;1008;47.404;8.502;2023-09-18T08:53:55;18.90;1.00
2010;DHT22;1008;47.404;8.502;2023-09-18T08:56:22;19.00;1.00
2010;DHT22;1008;47.404;8.502;2023-09-18T08:58:49;19.10;1.00
2010;DHT22;1008;47.404;8.502;2023-09-18T09:01:18;19.00;1.00
2010;DHT22;1008;47.404;8.502;2023-09-18T09:03:46;18.80;1.00
2010;DHT22;1008;47.404;8.502;2023-09-18T09:06:14;18.80;1.00
2010;DHT22;1008;47.404;8.502;2023-09-18T09:08:42;18.80;1.00
2010;DHT22;1008;47.404;8.502;2023-09-18T09:11:09;18.70;1.00
2010;DHT22;1008;47.404;8.502;2023-09-18T09:13:36;18.90;1.00
2010;DHT22;1008;47.404;8.502;2023-09-18T09:16:03;18.90;1.00
2010;DHT22;1008;47.404;8.502;2023-09-18T09:18:30;18.90;1.00
2010;DHT22;1008;47.404;8.502;2023-09-18T09:20:59;18.80;1.00
2010;DHT22;1008;47.404;8.502;2023-09-18T09:23:29;19.00;1.00
2010;DHT22;1008;47.404;8.502;2023-09-18T09:26:12;19.20;1.00
2010;DHT22;1008;47.404;8.502;2023-09-18T09:28:39;19.00;1.00
2010;DHT22;1008;47.404;8.502;2023-09-18T09:31:08;19.00;1.00
2010;DHT22;1008;47.404;8.502;2023-09-18T09:33:36;19.10;1.00
2010;DHT22;1008;47.404;8.502;2023-09-18T09:36:06;19.40;1.00
2010;DHT22;1008;47.404;8.502;2023-09-18T09:38:34;19.50;1.00
2010;DHT22;1008;47.404;8.502;2023-09-18T09:41:02;19.50;1.00
2010;DHT22;1008;47.404;8.502;2023-09-18T09:43:32;19.50;1.00
2010;DHT22;1008;47.404;8.502;2023-09-18T09:46:00;19.50;1.00
2010;DHT22;1008;47.404;8.502;2023-09-18T09:48:27;19.40;1.00
2010;DHT22;1008;47.404;8.502;2023-09-18T09:50:58;19.40;1.00
2010;DHT22;1008;47.404;8.502;2023-09-18T09:53:44;19.40;1.00
2010;DHT22;1008;47.404;8.502;2023-09-18T09:56:12;19.60;99.90
2010;DHT22;1008;47.404;8.502;2023-09-18T09:58:39;19.50;99.90
2010;DHT22;1008;47.404;8.502;2023-09-18T10:01:11;19.50;99.90
2010;DHT22;1008;47.404;8.502;2023-09-18T10:03:44;19.40;99.90
2010;DHT22;1008;47.404;8.502;2023-09-18T10:06:10;19.40;1.00
2010;DHT22;1008;47.404;8.502;2023-09-18T10:08:39;19.30;99.90
2010;DHT22;1008;47.404;8.502;2023-09-18T10:11:09;19.30;1.00
2010;DHT22;1008;47.404;8.502;2023-09-18T10:13:41;19.30;1.00
2010;DHT22;1008;47.404;8.502;2023-09-18T10:16:12;19.40;99.90
2010;DHT22;1008;47.404;8.502;2023-09-18T10:18:47;19.60;99.90
2010;DHT22;1008;47.404;8.502;2023-09-18T10:21:23;19.40;1.00
2010;DHT22;1008;47.404;8.502;2023-09-18T10:24:01;19.20;1.00
2010;DHT22;1008;47.404;8.502;2023-09-18T10:26:35;19.00;99.90
2010;DHT22;1008;47.404;8.502;2023-09-18T10:29:07;19.00;1.00
2010;DHT22;1008;47.404;8.502;2023-09-18T10:31:38;19.20;99.90
2010;DHT22;1008;47.404;8.502;2023-09-18T10:34:06;19.20;99.90
2010;DHT22;1008;47.404;8.502;2023-09-18T10:36:34;19.30;99.90
2010;DHT22;1008;47.404;8.502;2023-09-18T10:39:01;19.30;99.90
2010;DHT22;1008;47.404;8.502;2023-09-18T10:41:35;19.30;99.90
2010;DHT22;1008;47.404;8.502;2023-09-18T10:44:04;19.40;99.90
2010;DHT22;1008;47.404;8.502;2023-09-18T10:46:31;19.60;99.90
2010;DHT22;1008;47.404;8.502;2023-09-18T10:48:58;19.60;99.90
2010;DHT22;1008;47.404;8.502;2023-09-18T10:51:26;19.70;1.00
2010;DHT22;1008;47.404;8.502;2023-09-18T10:53:53;19.70;99.90
2010;DHT22;1008;47.404;8.502;2023-09-18T10:56:23;19.60;1.00
2010;DHT22;1008;47.404;8.502;2023-09-18T10:58:58;19.70;1.00
2010;DHT22;1008;47.404;8.502;2023-09-18T11:01:25;19.60;99.90
2010;DHT22;1008;47.404;8.502;2023-09-18T11:03:57;19.50;1.00
2010;DHT22;1008;47.404;8.502;2023-09-18T11:06:26;19.70;99.90
2010;DHT22;1008;47.404;8.502;2023-09-18T11:08:59;19.80;28.90
2010;DHT22;1008;47.404;8.502;2023-09-18T11:11:30;19.60;16.50
2010;DHT22;1008;47.404;8.502;2023-09-18T11:13:59;19.60;99.90
2010;DHT22;1008;47.404;8.502;2023-09-18T11:16:35;19.60;86.70
2010;DHT22;1008;47.404;8.502;2023-09-18T11:19:11;19.60;1.00
2010;DHT22;1008;47.404;8.502;2023-09-18T11:21:39;19.50;99.90
2010;DHT22;1008;47.404;8.502;2023-09-18T11:24:07;19.60;1.00
2010;DHT22;1008;47.404;8.502;2023-09-18T11:26:37;19.60;30.10
2010;DHT22;1008;47.404;8.502;2023-09-18T11:29:07;19.50;99.90
2010;DHT22;1008;47.404;8.502;2023-09-18T11:31:45;19.50;1.00
2010;DHT22;1008;47.404;8.502;2023-09-18T11:34:14;19.40;1.00
2010;DHT22;1008;47.404;8.502;2023-09-18T11:36:41;19.50;1.00
2010;DHT22;1008;47.404;8.502;2023-09-18T11:39:08;19.50;99.90
2010;DHT22;1008;47.404;8.502;2023-09-18T11:41:37;19.70;18.70
2010;DHT22;1008;47.404;8.502;2023-09-18T11:44:32;19.70;1.00
2010;DHT22;1008;47.404;8.502;2023-09-18T11:47:07;19.80;1.00
2010;DHT22;1008;47.404;8.502;2023-09-18T11:49:38;19.80;1.00
2010;DHT22;1008;47.404;8.502;2023-09-18T11:52:07;20.00;1.00
2010;DHT22;1008;47.404;8.502;2023-09-18T11:54:35;20.20;99.90
2010;DHT22;1008;47.404;8.502;2023-09-18T11:57:05;20.30;1.00
2010;DHT22;1008;47.404;8.502;2023-09-18T11:59:38;20.40;1.00
2010;DHT22;1008;47.404;8.502;2023-09-18T12:02:05;20.30;1.00
2010;DHT22;1008;47.404;8.502;2023-09-18T12:04:34;20.30;1.00
2010;DHT22;1008;47.404;8.502;2023-09-18T12:07:01;20.20;99.90
2010;DHT22;1008;47.404;8.502;2023-09-18T12:09:29;20.10;1.00
2010;DHT22;1008;47.404;8.502;2023-09-18T12:11:57;20.10;1.30
2010;DHT22;1008;47.404;8.502;2023-09-18T12:14:30;20.20;1.00
2010;DHT22;1008;47.404;8.502;2023-09-18T12:16:59;20.20;99.90
2010;DHT22;1008;47.404;8.502;2023-09-18T12:19:26;20.10;99.90
2010;DHT22;1008;47.404;8.502;2023-09-18T12:21:52;20.00;99.90
2010;DHT22;1008;47.404;8.502;2023-09-18T12:24:21;20.00;99.90
2010;DHT22;1008;47.404;8.502;2023-09-18T12:26:48;20.10;1.00
2010;DHT22;1008;47.404;8.502;2023-09-18T12:29:15;20.00;99.90
2010;DHT22;1008;47.404;8.502;2023-09-18T12:31:42;20.10;1.00
2010;DHT22;1008;47.404;8.502;2023-09-18T12:34:15;20.20;1.00
2010;DHT22;1008;47.404;8.502;2023-09-18T12:36:43;20.10;8.70
2010;DHT22;1008;47.404;8.502;2023-09-18T12:39:12;20.10;1.00
2010;DHT22;1008;47.404;8.502;2023-09-18T12:41:41;20.20;1.00
2010;DHT22;1008;47.404;8.502;2023-09-18T12:44:09;20.40;99.90
2010;DHT22;1008;47.404;8.502;2023-09-18T12:46:37;20.70;99.90
2010;DHT22;1008;47.404;8.502;2023-09-18T12:49:21;20.60;99.90
2010;DHT22;1008;47.404;8.502;2023-09-18T12:51:57;20.80;99.90
2010;DHT22;1008;47.404;8.502;2023-09-18T12:54:41;20.80;99.90
2010;DHT22;1008;47.404;8.502;2023-09-18T12:57:09;20.80;1.00
2010;DHT22;1008;47.404;8.502;2023-09-18T12:59:37;20.70;99.90
2010;DHT22;1008;47.404;8.502;2023-09-18T13:02:04;20.90;99.90
2010;DHT22;1008;47.404;8.502;2023-09-18T13:04:33;20.80;61.80
2010;DHT22;1008;47.404;8.502;2023-09-18T13:07:11;20.70;1.00
2010;DHT22;1008;47.404;8.502;2023-09-18T13:09:38;20.60;1.00
2010;DHT22;1008;47.404;8.502;2023-09-18T13:12:06;20.80;1.00
2010;DHT22;1008;47.404;8.502;2023-09-18T13:14:57;20.90;1.00
2010;DHT22;1008;47.404;8.502;2023-09-18T13:17:24;20.90;1.00
2010;DHT22;1008;47.404;8.502;2023-09-18T13:19:52;20.90;1.00
2010;DHT22;1008;47.404;8.502;2023-09-18T13:22:23;20.90;1.00
2010;DHT22;1008;47.404;8.502;2023-09-18T13:24:55;20.90;1.00
2010;DHT22;1008;47.404;8.502;2023-09-18T13:27:22;20.90;1.00
2010;DHT22;1008;47.404;8.502;2023-09-18T13:29:49;20.90;1.00
2010;DHT22;1008;47.404;8.502;2023-09-18T13:32:16;20.90;1.00
2010;DHT22;1008;47.404;8.502;2023-09-18T13:34:42;21.00;1.00
2010;DHT22;1008;47.404;8.502;2023-09-18T13:37:11;21.10;1.00
2010;DHT22;1008;47.404;8.502;2023-09-18T13:39:39;21.10;1.00
2010;DHT22;1008;47.404;8.502;2023-09-18T13:42:06;21.00;1.00
2010;DHT22;1008;47.404;8.502;2023-09-18T13:44:32;20.80;1.00
2010;DHT22;1008;47.404;8.502;2023-09-18T13:47:00;20.80;1.00
2010;DHT22;1008;47.404;8.502;2023-09-18T13:49:27;20.80;1.00
2010;DHT22;1008;47.404;8.502;2023-09-18T13:51:54;21.00;1.00
2010;DHT22;1008;47.404;8.502;2023-09-18T13:54:23;21.00;1.00
2010;DHT22;1008;47.404;8.502;2023-09-18T13:56:50;20.90;1.00
2010;DHT22;1008;47.404;8.502;2023-09-18T13:59:16;21.00;1.00
2010;DHT22;1008;47.404;8.502;2023-09-18T14:01:43;21.00;1.00
2010;DHT22;1008;47.404;8.502;2023-09-18T14:04:10;21.00;1.00
2010;DHT22;1008;47.404;8.502;2023-09-18T14:06:36;21.00;1.00
2010;DHT22;1008;47.404;8.502;2023-09-18T14:09:03;20.90;1.00
2010;DHT22;1008;47.404;8.502;2023-09-18T14:11:32;21.00;1.00
2010;DHT22;1008;47.404;8.502;2023-09-18T14:14:03;21.00;1.00
2010;DHT22;1008;47.404;8.502;2023-09-18T14:16:30;21.30;1.00
2010;DHT22;1008;47.404;8.502;2023-09-18T14:18:58;21.80;1.00
2010;DHT22;1008;47.404;8.502;2023-09-18T14:21:25;21.70;1.00
2010;DHT22;1008;47.404;8.502;2023-09-18T14:23:54;21.70;1.00
2010;DHT22;1008;47.404;8.502;2023-09-18T14:26:21;21.60;1.00
2010;DHT22;1008;47.404;8.502;2023-09-18T14:28:49;21.40;1.00
2010;DHT22;1008;47.404;8.502;2023-09-18T14:31:16;21.50;1.00
2010;DHT22;1008;47.404;8.502;2023-09-18T14:33:43;21.50;1.00
2010;DHT22;1008;47.404;8.502;2023-09-18T14:36:09;21.50;1.00
2010;DHT22;1008;47.404;8.502;2023-09-18T14:38:36;21.50;1.00
2010;DHT22;1008;47.404;8.502;2023-09-18T14:41:05;21.50;1.00
2010;DHT22;1008;47.404;8.502;2023-09-18T14:43:32;21.50;1.00
2010;DHT22;1008;47.404;8.502;2023-09-18T14:46:00;21.30;1.00
2010;DHT22;1008;47.404;8.502;2023-09-18T14:48:27;21.50;1.00
2010;DHT22;1008;47.404;8.502;2023-09-18T14:50:56;21.40;1.00
2010;DHT22;1008;47.404;8.502;2023-09-18T14:53:23;21.50;1.00
2010;DHT22;1008;47.404;8.502;2023-09-18T14:55:50;21.50;1.00
2010;DHT22;1008;47.404;8.502;2023-09-18T14:58:17;21.40;1.00
2010;DHT22;1008;47.404;8.502;2023-09-18T15:00:47;21.40;1.00
2010;DHT22;1008;47.404;8.502;2023-09-18T15:03:15;21.30;1.00
2010;DHT22;1008;47.404;8.502;2023-09-18T15:05:42;21.20;1.00
2010;DHT22;1008;47.404;8.502;2023-09-18T15:08:09;21.10;1.00
2010;DHT22;1008;47.404;8.502;2023-09-18T15:10:35;21.20;1.00
2010;DHT22;1008;47.404;8.502;2023-09-18T15:13:02;21.10;1.00
2010;DHT22;1008;47.404;8.502;2023-09-18T15:15:29;21.10;1.00
2010;DHT22;1008;47.404;8.502;2023-09-18T15:17:56;21.20;53.40
2010;DHT22;1008;47.404;8.502;2023-09-18T15:20:24;21.10;20.20
2010;DHT22;1008;47.404;8.502;2023-09-18T15:22:52;21.00;99.90
2010;DHT22;1008;47.404;8.502;2023-09-18T15:25:21;21.00;99.90
2010;DHT22;1008;47.404;8.502;2023-09-18T15:27:48;21.00;99.90
2010;DHT22;1008;47.404;8.502;2023-09-18T15:30:15;21.00;99.90
2010;DHT22;1008;47.404;8.502;2023-09-18T15:32:49;21.00;99.90
2010;DHT22;1008;47.404;8.502;2023-09-18T15:35:16;20.90;99.90
2010;DHT22;1008;47.404;8.502;2023-09-18T15:37:44;20.90;99.90
2010;DHT22;1008;47.404;8.502;2023-09-18T15:40:11;20.80;99.90
2010;DHT22;1008;47.404;8.502;2023-09-18T15:42:39;21.00;99.90
2010;DHT22;1008;47.404;8.502;2023-09-18T15:45:07;21.00;99.90
2010;DHT22;1008;47.404;8.502;2023-09-18T15:47:36;20.90;99.90
2010;DHT22;1008;47.404;8.502;2023-09-18T15:50:04;21.10;99.90
2010;DHT22;1008;47.404;8.502;2023-09-18T15:52:30;21.10;99.90
2010;DHT22;1008;47.404;8.502;2023-09-18T15:54:59;21.00;99.90
2010;DHT22;1008;47.404;8.502;2023-09-18T15:57:26;21.00;99.90
2010;DHT22;1008;47.404;8.502;2023-09-18T15:59:52;21.00;99.90
2010;DHT22;1008;47.404;8.502;2023-09-18T16:02:19;21.00;99.90
2010;DHT22;1008;47.404;8.502;2023-09-18T16:04:46;20.90;99.90
2010;DHT22;1008;47.404;8.502;2023-09-18T16:07:12;20.90;1.00
2010;DHT22;1008;47.404;8.502;2023-09-18T16:09:39;20.90;99.90
2010;DHT22;1008;47.404;8.502;2023-09-18T16:12:08;21.00;99.90
2010;DHT22;1008;47.404;8.502;2023-09-18T16:14:35;21.00;99.90